Sweeney Granite Mountains, California Weather observations

Data are for 10 minute period ending at time listed.
 Day   Time   Solar   Ave.   Ave.  Ave.  Vector  Max.   Baro.   Total    
  of    of     Rad.   Air    Rel.  Wind   Wind   Wind  Press.  Precip.   
Year   Day            Temp.  Hum.  Speed  Dir.   Gust                    
2014   (PST)  Kw/m2    F      %     mph   deg.    mph    mb.     in.     
-------------------------------------------------------------------------
 297   10:10   0.67   75.7    26    8.1   120    12.9   874.9    0.00 
 297   10:20   0.69   75.8    26    7.9   124    15.8   874.9    0.00 
 297   10:30   0.70   75.3    26    8.3   129    14.4   874.8    0.00 
 297   10:40   0.71   75.9    25    8.1   106    13.2   874.7    0.00 
 297   10:50   0.71   76.0    25    7.7   124    12.6   874.7    0.00 
 297   11:00   0.73   76.2    25    8.5   117    15.5   874.6    0.00 
 297   11:10   0.74   76.1    24    7.5   128    13.4   874.5    0.00 
 297   11:20   0.74   76.3    24    6.1   124    13.7   874.5    0.00 
 297   11:30   0.74   76.2    24    8.1   130    15.2   874.3    0.00 
 297   11:40   0.74   76.5    24    8.1   125    17.4   874.2    0.00 
 297   11:50   0.74   76.6    23    9.3   118    16.5   874.0    0.00 
 297   12:00   0.74   76.9    22    7.3   119    13.4   873.9    0.00 
 297   12:10   0.73   77.0    22    8.1   126    14.1   873.7    0.00 
 297   12:20   0.72   76.6    22    7.4   120    15.4   873.6    0.00 
 297   12:30   0.71   76.9    22    8.5   123    13.4   873.5    0.00 
 297   12:40   0.68   77.5    21    6.5   119    12.1   873.4    0.00 
 297   12:50   0.69   77.2    22    5.6   135    12.2   873.3    0.00 
 297   13:00   0.68   77.6    21    6.9   126    14.0   873.1    0.00 
 297   13:10   0.66   76.9    20    7.8   122    16.4   873.0    0.00 
 297   13:20   0.65   77.1    21    6.7   110    12.7   872.9    0.00 
 297   13:30   0.62   76.8    21    7.5   123    14.3   872.8    0.00 
 297   13:40   0.60   77.2    20    9.3   120    17.6   872.8    0.00 
 297   13:50   0.58   77.3    21    5.6   123    11.8   872.7    0.00 
 297   14:00   0.56   77.2    20    8.6   127    12.7   872.7    0.00 
 297   14:10   0.53   76.7    20    8.3   125    14.4   872.7    0.00 
 297   14:20   0.51   76.8    20    9.6   122    15.2   872.7    0.00 
 297   14:30   0.47   76.6    21    7.7   125    13.5   872.6    0.00 
 297   14:40   0.45   76.4    22    8.2   125    12.9   872.6    0.00 
 297   14:50   0.42   76.0    22   10.1   130    16.1   872.5    0.00 
 297   15:00   0.38   75.8    22    8.2   124    16.0   872.5    0.00 
 297   15:10   0.35   75.7    22    8.7   124    14.6   872.4    0.00 
 297   15:20   0.07   75.2    23    7.4   129    12.6   872.3    0.00 
 297   15:30   0.03   74.5    24    8.7   122    13.2   872.2    0.00 
 297   15:40   0.02   74.5    23    8.2   117    14.2   872.1    0.00 
 297   15:50   0.01   74.0    23    9.8   125    14.0   872.0    0.00 
 297   16:00   0.01   73.4    24    8.5   128    12.2   872.0    0.00 
 297   16:10   0.01   73.3    24    8.5   119    14.3   871.9    0.00 
 297   16:20   0.01   73.1    23    7.0   121    11.5   871.9    0.00 
 297   16:30   0.01   73.0    23    6.7   118    11.5   871.8    0.00 
 297   16:40   0.01   72.7    23    6.6   116    11.5   871.8    0.00 
 297   16:50   0.00   71.5    24    6.3   114     9.6   871.8    0.00 
 297   17:00   0.00   70.5    24    5.2   104    10.0   871.8    0.00 
 297   17:10   0.00   69.8    24    4.7    97     7.8   871.9    0.00 
 297   17:20   0.00   69.2    25    4.3   101     5.6   871.9    0.00 
 297   17:30   0.00   68.7    25    3.5   104     5.7   871.8    0.00 
 297   17:40   0.00   68.6    26    3.3   104     5.3   871.7    0.00 
 297   17:50   0.00   68.4    27    3.9   101     5.2   871.7    0.00 
 297   18:00   0.00   68.3    28    3.4   105     5.7   871.8    0.00 
 297   18:10   0.00   68.3    28    3.6   109     4.8   871.9    0.00 
 297   18:20   0.00   67.8    29    4.5   105     6.9   871.9    0.00 
 297   18:30   0.00   66.9    30    5.3   102     6.9   871.9    0.00 
 297   18:40   0.00   67.2    30    4.0   105     6.1   871.9    0.00 
 297   18:50   0.00   68.1    29    1.9   101     2.9   871.9    0.00 
 297   19:00   0.00   66.3    30    0.6   102     2.3   871.9    0.00 
 297   19:10   0.00   65.3    31    0.9   301     2.5   871.8    0.00 
 297   19:20   0.00   64.7    32    0.0   331     0.1   871.8    0.00 
 297   19:30   0.00   64.4    32    0.9    51     2.6   871.8    0.00 
 297   19:40   0.00   64.7    31    0.5   337     1.8   871.9    0.00 
 297   19:50   0.00   65.6    30    1.1   281     2.6   872.0    0.00 
 297   20:00   0.00   65.4    30    0.7   302     2.8   872.0    0.00 
 297   20:10   0.00   65.0    30    0.4   162     2.3   872.1    0.00 
 297   20:20   0.00   63.5    32    2.2   126     4.2   872.1    0.00 
 297   20:30   0.00   65.0    31    2.2   116     3.1   872.1    0.00 
 297   20:40   0.00   63.5    32    2.1   106     3.2   872.1    0.00 
 297   20:50   0.00   62.8    33    2.7   100     3.4   872.1    0.00 
 297   21:00   0.00   63.0    33    2.2    91     4.6   872.1    0.00 
 297   21:10   0.00   61.8    34    1.5    74     3.7   872.2    0.00 
 297   21:20   0.00   63.4    33    0.9   286     2.9   872.3    0.00 
 297   21:30   0.00   63.7    32    2.7   277     4.5   872.3    0.00 
 297   21:40   0.00   62.9    33    2.3   271     4.0   872.3    0.00 
 297   21:50   0.00   62.2    34    1.8   264     4.8   872.3    0.00 
 297   22:00   0.00   61.8    34    3.3   244     6.6   872.3    0.00 
 297   22:10   0.00   62.0    34    3.9   251     7.9   872.3    0.00 
 297   22:20   0.00   64.2    31    2.4   232     6.1   872.3    0.00 
 297   22:30   0.00   64.4    31    1.4   289     6.0   872.3    0.00 
 297   22:40   0.00   63.2    32    2.2   255     5.3   872.3    0.00 
 297   22:50   0.00   64.9    31    1.2    81     3.7   872.2    0.00 
 297   23:00   0.00   64.1    32    1.7     7     4.0   872.2    0.00 
 297   23:10   0.00   63.4    33    1.0    32     2.9   872.1    0.00 
 297   23:20   0.00   62.9    34    1.3   297     2.9   872.2    0.00 
 297   23:30   0.00   63.5    34    2.5   292     3.9   872.2    0.00 
 297   23:40   0.00   65.2    33    2.2   294     5.3   872.2    0.00 
 297   23:50   0.00   65.1    33    2.1   296     4.3   872.2    0.00 
 298    0:00   0.00   66.2    32    3.7   258     9.3   872.2    0.00 
 298    0:10   0.00   66.8    32    4.9   245    10.7   872.2    0.00 
 298    0:20   0.00   67.4    31    3.0   262     9.6   872.3    0.00 
 298    0:30   0.00   65.8    33    1.8   294     6.0   872.3    0.00 
 298    0:40   0.00   66.8    31    4.4   238     9.7   872.2    0.00 
 298    0:50   0.00   66.7    31    3.7   257     9.6   872.2    0.00 
 298    1:00   0.00   65.9    32    2.0   258     5.7   872.2    0.00 
 298    1:10   0.00   63.6    35    2.3   297     3.9   872.2    0.00 
 298    1:20   0.00   62.4    36    2.6   273     4.2   872.1    0.00 
 298    1:30   0.00   61.6    37    2.3   267     3.3   872.0    0.00 
 298    1:40   0.00   62.8    36    2.1   257     5.7   871.9    0.00 
 298    1:50   0.00   63.5    36    3.7   234     6.4   871.9    0.00 
 298    2:00   0.00   63.6    36    3.3   250     6.8   871.8    0.00 
 298    2:10   0.00   64.3    35    2.5   251     6.2   871.8    0.00 
 298    2:20   0.00   63.0    36    1.4   267     4.7   871.7    0.00 
 298    2:30   0.00   61.2    39    1.4   304     2.9   871.5    0.00 
 298    2:40   0.00   58.3    43    2.1   277     2.9   871.5    0.00 
 298    2:50   0.00   60.4    40    1.2   289     2.4   871.4    0.00 
 298    3:00   0.00   60.2    40    1.6   302     3.4   871.3    0.00 
 298    3:10   0.00   60.9    38    1.5   287     3.0   871.3    0.00 
 298    3:20   0.00   61.1    37    2.0   269     5.6   871.3    0.00 
 298    3:30   0.00   64.7    33    4.4   240    10.6   871.3    0.00 
 298    3:40   0.00   66.6    31    4.4   240     8.3   871.3    0.00 
 298    3:50   0.00   66.8    30    4.0   248     8.8   871.4    0.00 
 298    4:00   0.00   66.2    30    3.2   250     6.3   871.5    0.00 
 298    4:10   0.00   65.3    31    3.4   251     7.1   871.5    0.00 
 298    4:20   0.00   62.3    35    2.6   268     4.9   871.5    0.00 
 298    4:30   0.00   61.6    36    1.8   278     3.1   871.5    0.00 
 298    4:40   0.00   60.8    37    1.4   284     3.4   871.6    0.00 
 298    4:50   0.00   60.2    39    1.5   282     3.2   871.6    0.00 
 298    5:00   0.00   61.4    38    0.9   266     3.0   871.6    0.00 
 298    5:10   0.00   61.3    39    0.9   296     2.4   871.6    0.00 
 298    5:20   0.00   62.0    38    2.9   294     4.4   871.6    0.00 
 298    5:30   0.00   62.1    40    3.6   288     7.0   871.7    0.00 
 298    5:40   0.00   63.5    39    3.2   274     5.3   871.7    0.00 
 298    5:50   0.00   63.3    40    3.9   289     7.4   871.8    0.00 
 298    6:00   0.00   63.5    41    3.1   281     4.5   871.8    0.00 
 298    6:10   0.00   63.1    41    3.2   278     4.9   871.9    0.00 
 298    6:20   0.01   63.4    41    4.5   283     7.7   872.0    0.00 
 298    6:30   0.04   65.4    39    5.1   282     8.6   872.1    0.00 
 298    6:40   0.07   66.6    38    6.6   286    12.5   872.2    0.00 
 298    6:50   0.09   67.3    37    5.6   280    10.1   872.4    0.00 
 298    7:00   0.12   68.4    36    3.3   261     6.1   872.5    0.00 
 298    7:10   0.15   69.3    35    4.6   259    10.4   872.6    0.00 
 298    7:20   0.18   68.9    36    8.0   276    16.4   872.7    0.00 
 298    7:30   0.22   68.6    36    9.5   282    17.2   872.8    0.00 
 298    7:40   0.20   68.6    36    8.3   277    16.0   872.9    0.00 
 298    7:50   0.25   69.2    36    7.0   272    18.9   873.0    0.00 
 298    8:00   0.28   70.3    34    6.2   278    12.2   873.1    0.00 
 298    8:10   0.35   70.2    34    5.9   278    11.0   873.2    0.00 
 298    8:20   0.35   70.7    33    8.9   278    15.0   873.3    0.00 
 298    8:30   0.35   70.6    33    7.3   278    11.5   873.4    0.00 
 298    8:40   0.36   70.9    32    4.7   260     9.6   873.4    0.00 
 298    8:50   0.48   72.3    31    4.9   272     9.9   873.5    0.00 
 298    9:00   0.52   72.2    30    5.6   251    12.3   873.6    0.00 
 298    9:10   0.48   72.8    30    4.8   241    10.1   873.6    0.00 
 298    9:20   0.58   72.2    30    4.6   210    10.1   873.7    0.00 
 298    9:30   0.57   72.7    29    4.5   227    10.4   873.7    0.00 
 298    9:40   0.60   73.8    29    3.7   173    10.6   873.7    0.00 
 298    9:50   0.64   73.1    29    4.9   204    10.4   873.8    0.00 
 298   10:00   0.55   73.1    29    3.3   174     8.8   873.8    0.00 

Return to Sweeney Granite Mountains graphs page.


Western Regional Climate Center,wrcc@dri.edu